Terminal Aerodrome Forecast
Issued by NWS Milwaukee/Sullivan, WI

Home | Current Version | Previous Version | Text Only | Print | Product List | Glossary On
Versions: 1 2 3 4 5 6 7 8 9 10 11 12 13 14 15 16 17 18 19 20 21 22 23 24 25 26 27 28 29 30
000
FTUS43 KMKX 061723
TAFMKE
TAF
KMKE 061723Z 0618/0724 22007KT 6SM BR OVC020
     FM062000 25009KT P6SM -DZ OVC010
     FM062200 26011G19KT P6SM BKN025
     FM070600 26012KT P6SM SCT250
     FM071300 26012G23KT P6SM BKN060=

USA.gov is the U.S. government's official web portal to all federal, state and local government web resources and services.